createdAt,value
2022-08-26T00:04:07.967Z,6.30
2022-08-26T00:09:09.271Z,8.23
2022-08-26T00:14:11.033Z,6.00
2022-08-26T00:19:12.090Z,7.18
2022-08-26T00:24:14.581Z,9.32
2022-08-26T00:29:16.062Z,6.55
2022-08-26T00:34:19.239Z,5.40
2022-08-26T00:39:20.625Z,5.65
2022-08-26T00:44:21.730Z,6.72
2022-08-26T00:49:35.017Z,5.90
2022-08-26T00:54:40.417Z,7.07
2022-08-26T00:59:52.273Z,7.03
2022-08-26T01:04:58.305Z,5.50
2022-08-26T01:10:01.440Z,8.27
2022-08-26T01:15:02.865Z,4.95
2022-08-26T01:20:31.477Z,8.25
2022-08-26T01:25:38.334Z,6.85
2022-08-26T01:30:41.381Z,8.77
2022-08-26T01:35:44.154Z,8.73
2022-08-26T01:40:46.260Z,6.37
2022-08-26T01:45:48.658Z,6.83
2022-08-26T01:50:51.249Z,9.25
2022-08-26T01:55:56.400Z,5.80
2022-08-26T02:00:58.128Z,6.25
2022-08-26T02:06:03.735Z,7.70
2022-08-26T02:11:06.020Z,6.95
2022-08-26T02:16:08.498Z,7.63
2022-08-26T02:21:11.313Z,10.13
2022-08-26T02:31:20.247Z,6.82
2022-08-26T02:36:28.450Z,8.20
2022-08-26T02:41:29.853Z,9.15
2022-08-26T02:46:33.967Z,6.68
2022-08-26T02:51:35.687Z,6.83
2022-08-26T02:56:36.647Z,5.40
2022-08-26T03:01:39.737Z,9.80
2022-08-26T03:06:41.622Z,8.05
2022-08-26T03:11:42.621Z,9.67
2022-08-26T03:16:44.611Z,9.00
2022-08-26T03:21:51.611Z,7.40
2022-08-26T03:26:53.295Z,12.18
2022-08-26T03:31:54.678Z,8.88
2022-08-26T03:36:55.531Z,11.57
2022-08-26T03:41:58.247Z,8.48
2022-08-26T03:46:59.107Z,10.03
2022-08-26T03:52:00.020Z,14.38
2022-08-26T03:57:01.333Z,17.55
2022-08-26T04:02:02.337Z,15.40
2022-08-26T04:07:03.529Z,28.77
2022-08-26T04:12:05.265Z,22.70
2022-08-26T04:17:06.128Z,26.05
2022-08-26T04:22:07.774Z,34.55
2022-08-26T04:27:09.658Z,36.53
2022-08-26T04:32:10.493Z,37.92
2022-08-26T04:37:12.506Z,39.72
2022-08-26T04:42:14.934Z,51.10
2022-08-26T04:47:16.011Z,53.97
2022-08-26T04:52:17.108Z,54.63
2022-08-26T04:57:17.911Z,53.90
2022-08-26T05:02:18.800Z,55.70
2022-08-26T05:07:19.929Z,64.25
2022-08-26T05:12:20.870Z,71.32
2022-08-26T05:17:22.248Z,66.53
2022-08-26T05:22:23.146Z,74.43
2022-08-26T05:27:23.943Z,70.20
2022-08-26T05:32:24.995Z,73.70
2022-08-26T05:37:25.844Z,66.87
2022-08-26T05:42:27.244Z,71.28
2022-08-26T05:47:29.230Z,69.53
2022-08-26T05:52:31.724Z,64.78
2022-08-26T05:57:33.902Z,72.40
2022-08-26T06:02:38.291Z,72.15
2022-08-26T06:07:57.757Z,68.10
2022-08-26T06:13:09.198Z,71.03
2022-08-26T06:18:14.531Z,79.55
2022-08-26T06:28:35.643Z,69.70
2022-08-26T06:33:37.978Z,66.93
2022-08-26T06:38:41.125Z,71.90
2022-08-26T06:43:43.064Z,68.00
2022-08-26T06:48:44.223Z,63.28
2022-08-26T06:53:47.416Z,68.93
2022-08-26T06:58:49.753Z,64.03
2022-08-26T07:03:52.533Z,66.68
2022-08-26T07:09:03.383Z,68.55
2022-08-26T07:14:05.357Z,62.03
2022-08-26T07:19:11.223Z,63.08
2022-08-26T07:24:12.512Z,64.65
2022-08-26T07:29:14.145Z,58.38
2022-08-26T07:34:16.387Z,64.40
2022-08-26T07:39:19.291Z,67.10
2022-08-26T07:44:21.198Z,68.05
2022-08-26T07:49:23.710Z,70.15
2022-08-26T07:54:26.814Z,61.33
2022-08-26T07:59:28.100Z,63.97
2022-08-26T08:04:31.843Z,54.95
2022-08-26T08:09:32.735Z,58.17
2022-08-26T08:14:35.732Z,56.53
2022-08-26T08:19:39.190Z,58.30
2022-08-26T08:24:40.222Z,56.80
2022-08-26T08:29:41.072Z,59.50
2022-08-26T08:39:42.777Z,58.00
2022-08-26T08:44:52.262Z,51.85
2022-08-26T08:49:59.345Z,54.67
2022-08-26T08:55:01.827Z,48.90
2022-08-26T09:05:27.740Z,52.28
2022-08-26T09:10:36.371Z,48.22
2022-08-26T09:16:19.210Z,47.88
2022-08-26T09:21:22.902Z,46.08
2022-08-26T09:26:44.570Z,46.83
2022-08-26T09:31:45.733Z,42.67
2022-08-26T09:36:48.861Z,45.55
2022-08-26T09:42:20.078Z,48.70
2022-08-26T09:47:25.894Z,47.78
2022-08-26T09:52:27.062Z,46.17
2022-08-26T09:57:32.441Z,45.13
2022-08-26T10:02:40.798Z,39.47
2022-08-26T10:07:50.445Z,40.58
2022-08-26T10:13:05.966Z,42.08
2022-08-26T10:18:23.876Z,41.80
2022-08-26T10:23:28.606Z,43.53
2022-08-26T10:28:45.664Z,43.05
2022-08-26T10:33:46.599Z,36.20
2022-08-26T10:38:47.990Z,36.17
2022-08-26T10:43:56.177Z,37.88
2022-08-26T10:49:04.559Z,35.70
2022-08-26T10:54:19.067Z,33.40
2022-08-26T11:00:28.905Z,32.92
2022-08-26T11:05:29.948Z,34.85
2022-08-26T11:11:04.387Z,32.08
2022-08-26T11:16:07.485Z,32.58
2022-08-26T11:23:50.332Z,30.95
2022-08-26T11:28:52.549Z,35.72
2022-08-26T11:33:59.488Z,32.67
2022-08-26T11:39:20.592Z,35.53
2022-08-26T11:44:23.520Z,37.28
2022-08-26T11:49:28.204Z,32.78
2022-08-26T11:54:35.718Z,34.95
2022-08-26T11:59:40.035Z,34.15
2022-08-26T12:04:48.866Z,36.92
2022-08-26T12:09:54.416Z,30.83
2022-08-26T12:15:18.357Z,33.00
2022-08-26T12:20:47.412Z,34.78
2022-08-26T12:25:51.165Z,36.10
2022-08-26T12:31:04.366Z,30.23
2022-08-26T12:36:06.038Z,40.97
2022-08-26T12:41:06.990Z,30.40
2022-08-26T12:46:15.553Z,32.80
2022-08-26T12:51:24.900Z,33.20
2022-08-26T12:57:08.048Z,30.90
2022-08-26T13:02:09.594Z,32.65
2022-08-26T13:07:28.732Z,34.92
2022-08-26T13:12:32.769Z,31.90
2022-08-26T13:17:35.114Z,29.23
2022-08-26T13:22:36.678Z,26.30
2022-08-26T13:27:38.181Z,21.48
2022-08-26T13:32:39.060Z,18.57
2022-08-26T13:37:40.008Z,23.55
2022-08-26T13:42:49.486Z,19.95
2022-08-26T13:47:51.247Z,21.23
2022-08-26T13:52:52.751Z,31.73
2022-08-26T13:57:55.004Z,27.73
2022-08-26T14:07:57.269Z,29.80
2022-08-26T14:12:58.848Z,28.12
2022-08-26T14:18:02.302Z,23.15
2022-08-26T14:23:13.655Z,23.73
2022-08-26T14:28:15.727Z,29.55
2022-08-26T14:33:19.372Z,28.92
2022-08-26T14:38:20.662Z,29.33
2022-08-26T14:43:21.556Z,27.10
2022-08-26T14:48:22.473Z,23.23
2022-08-26T14:53:41.465Z,36.17
2022-08-26T14:58:43.233Z,34.10
2022-08-26T15:03:44.321Z,40.07
2022-08-26T15:08:45.187Z,28.35
2022-08-26T15:13:46.569Z,28.45
2022-08-26T15:18:48.587Z,22.67
2022-08-26T15:23:51.655Z,23.40
2022-08-26T15:28:52.695Z,25.42
2022-08-26T15:33:55.619Z,21.55
2022-08-26T15:38:59.219Z,20.83
2022-08-26T15:44:01.192Z,19.10
2022-08-26T15:49:05.338Z,25.00
2022-08-26T15:54:10.276Z,20.90
2022-08-26T15:59:11.645Z,25.77
2022-08-26T16:04:13.818Z,23.27
2022-08-26T16:09:15.421Z,25.30
2022-08-26T16:14:16.310Z,25.00
2022-08-26T16:19:17.599Z,28.85
2022-08-26T16:24:27.118Z,20.02
2022-08-26T16:34:32.654Z,16.75
2022-08-26T16:39:33.514Z,22.90
2022-08-26T16:44:43.814Z,20.73
2022-08-26T16:49:45.932Z,16.40
2022-08-26T16:54:46.822Z,19.42
2022-08-26T16:59:47.892Z,23.20
2022-08-26T17:04:50.224Z,14.90
2022-08-26T17:14:52.132Z,17.20
2022-08-26T17:19:53.407Z,18.75
2022-08-26T17:24:54.215Z,18.60
2022-08-26T17:29:55.547Z,15.18
2022-08-26T17:34:57.074Z,19.12
2022-08-26T17:39:58.025Z,16.02
2022-08-26T17:44:59.055Z,18.98
2022-08-26T17:50:03.784Z,15.40
2022-08-26T17:55:06.392Z,18.52
2022-08-26T18:05:14.713Z,15.77
2022-08-26T18:15:18.335Z,15.98
2022-08-26T18:20:19.726Z,19.52
2022-08-26T18:25:20.824Z,18.12
2022-08-26T18:30:21.993Z,20.58
2022-08-26T18:35:27.523Z,27.42
2022-08-26T18:40:28.433Z,19.50
2022-08-26T18:45:29.609Z,24.85
2022-08-26T18:50:30.469Z,19.87
2022-08-26T18:55:31.498Z,23.92
2022-08-26T19:00:32.495Z,20.50
2022-08-26T19:05:39.561Z,25.80
2022-08-26T19:10:40.799Z,24.45
2022-08-26T19:15:43.750Z,22.58
2022-08-26T19:20:46.857Z,26.15
2022-08-26T19:25:51.370Z,25.62
2022-08-26T19:30:53.247Z,27.42
2022-08-26T19:35:54.938Z,20.27
2022-08-26T19:40:55.821Z,24.30
2022-08-26T19:45:56.942Z,26.95
2022-08-26T19:50:58.478Z,20.20
2022-08-26T19:55:59.399Z,19.37
2022-08-26T20:01:00.407Z,21.12
2022-08-26T20:06:07.497Z,22.80
2022-08-26T20:11:11.745Z,22.55
2022-08-26T20:16:14.725Z,27.00
2022-08-26T20:21:28.386Z,18.20
2022-08-26T20:26:33.958Z,20.20
2022-08-26T20:31:35.540Z,21.98
2022-08-26T20:36:38.282Z,22.73
2022-08-26T20:41:39.892Z,24.98
2022-08-26T20:46:40.763Z,21.62
2022-08-26T20:51:44.727Z,15.00
2022-08-26T20:56:46.658Z,22.30
2022-08-26T21:01:48.375Z,22.37
2022-08-26T21:06:52.814Z,24.75
2022-08-26T21:11:54.427Z,18.08
2022-08-26T21:16:55.306Z,17.33
2022-08-26T21:21:56.136Z,29.15
2022-08-26T21:26:57.468Z,25.30
2022-08-26T21:31:58.592Z,22.40
2022-08-26T21:36:59.771Z,20.75
2022-08-26T21:42:00.960Z,29.05
2022-08-26T21:47:04.078Z,30.62
2022-08-26T21:52:05.433Z,21.62
2022-08-26T21:57:06.555Z,20.85
2022-08-26T22:02:07.610Z,25.02
2022-08-26T22:07:08.516Z,17.60
2022-08-26T22:12:11.194Z,22.37
2022-08-26T22:17:12.303Z,17.20
2022-08-26T22:22:14.049Z,24.15
2022-08-26T22:27:14.876Z,23.33
2022-08-26T22:32:17.824Z,29.17
2022-08-26T22:42:19.515Z,25.27
2022-08-26T22:47:20.375Z,24.33
2022-08-26T22:52:21.242Z,25.73
2022-08-26T22:57:22.094Z,28.40
2022-08-26T23:02:23.499Z,24.87
2022-08-26T23:07:24.373Z,28.12
2022-08-26T23:12:27.037Z,26.83
2022-08-26T23:17:27.865Z,30.00
2022-08-26T23:22:28.724Z,30.02
2022-08-26T23:27:29.585Z,26.80
2022-08-26T23:32:30.730Z,25.52
2022-08-26T23:37:38.187Z,28.52
2022-08-26T23:42:41.464Z,29.67
2022-08-26T23:47:42.303Z,27.15
2022-08-26T23:53:01.509Z,28.62
2022-08-26T23:58:03.001Z,25.48
